Time;durP1;ratioP1;P1;durP2;ratioP2;P2;SDS_P1;SDS_P2;PMS_P1;PMS_P2;Temp;Humidity;BMP_temperature;BMP_pressure;BME280_temperature;BME280_humidity;BME280_pressure;Samples;Min_cycle;Max_cycle;Signal;HPM_P1;HPM_P2
2022/07/01 00:01:24;;;;;;;1.52;0.50;;;19.60;62.30;;;;;;5052668;28;20405;-63
2022/07/01 00:03:50;;;;;;;1.75;0.60;;;19.60;62.50;;;;;;5049711;28;20129;-63
2022/07/01 00:06:20;;;;;;;2.33;0.70;;;19.60;62.50;;;;;;5051095;28;20518;-63
2022/07/01 00:08:46;;;;;;;2.45;0.43;;;19.60;62.40;;;;;;5034451;28;20041;-63
2022/07/01 00:11:12;;;;;;;1.67;0.47;;;19.60;62.40;;;;;;5049315;28;20036;-63
2022/07/01 00:13:38;;;;;;;1.85;0.50;;;19.50;62.50;;;;;;5051007;28;20033;-63
2022/07/01 00:16:04;;;;;;;1.20;0.50;;;19.50;62.90;;;;;;5050831;28;20086;-63
2022/07/01 00:18:30;;;;;;;1.42;0.52;;;19.50;62.50;;;;;;5051047;28;20033;-63
2022/07/01 00:20:56;;;;;;;2.38;0.60;;;19.50;62.40;;;;;;5049748;28;20029;-63
2022/07/01 00:23:22;;;;;;;1.08;0.40;;;19.50;62.30;;;;;;5052170;28;20072;-63
2022/07/01 00:25:47;;;;;;;0.95;0.40;;;19.40;62.30;;;;;;5049023;28;20045;-63
2022/07/01 00:28:13;;;;;;;1.52;0.50;;;19.40;62.20;;;;;;5052152;28;20107;-63
2022/07/01 00:30:39;;;;;;;0.98;0.45;;;19.50;62.10;;;;;;5032297;28;20061;-63
2022/07/01 00:33:06;;;;;;;1.17;0.35;;;19.40;62.60;;;;;;5051273;28;20404;-63
2022/07/01 00:35:31;;;;;;;0.63;0.32;;;19.40;62.00;;;;;;5049828;28;20053;-63
2022/07/01 00:37:57;;;;;;;0.98;0.40;;;19.40;62.10;;;;;;5032869;28;20051;-63
2022/07/01 00:40:24;;;;;;;2.60;0.60;;;19.40;62.10;;;;;;5047616;28;20041;-63
2022/07/01 00:42:50;;;;;;;1.10;0.50;;;19.40;62.00;;;;;;5049546;28;20052;-63
2022/07/01 00:45:16;;;;;;;1.27;0.30;;;19.40;62.10;;;;;;5047549;28;20083;-63
2022/07/01 00:47:43;;;;;;;1.95;0.52;;;19.40;62.10;;;;;;5051160;28;20427;-64
2022/07/01 00:50:14;;;;;;;0.63;0.30;;;19.40;62.00;;;;;;5047140;28;20116;-63
2022/07/01 00:52:41;;;;;;;1.08;0.50;;;19.30;61.90;;;;;;5049575;28;20165;-63
2022/07/01 00:55:09;;;;;;;0.73;0.38;;;19.40;62.00;;;;;;5050807;28;20151;-63
2022/07/01 00:57:36;;;;;;;0.80;0.32;;;19.40;62.00;;;;;;5049560;28;20037;-63
2022/07/01 01:00:17;;;;;;;2.10;0.70;;;19.40;62.00;;;;;;5050143;28;20040;-63
2022/07/01 01:02:42;;;;;;;1.05;0.52;;;19.30;61.90;;;;;;5049836;28;20041;-63
2022/07/01 01:05:09;;;;;;;0.60;0.40;;;19.30;61.90;;;;;;5049200;28;20072;-63
2022/07/01 01:07:34;;;;;;;1.00;0.40;;;19.40;61.80;;;;;;5049486;28;20120;-63
2022/07/01 01:10:04;;;;;;;0.60;0.40;;;19.40;61.80;;;;;;5047997;28;20436;-63
2022/07/01 01:12:30;;;;;;;1.52;0.50;;;19.40;61.90;;;;;;5048349;28;20040;-63
2022/07/01 01:14:57;;;;;;;1.65;0.40;;;19.40;61.80;;;;;;5049559;28;20045;-63
2022/07/01 01:17:23;;;;;;;0.95;0.40;;;19.40;61.90;;;;;;5048800;28;20126;-63
2022/07/01 01:19:50;;;;;;;3.72;0.60;;;19.40;61.80;;;;;;5049617;28;20043;-63
2022/07/01 01:22:17;;;;;;;1.30;0.60;;;19.30;61.70;;;;;;5048903;28;20480;-63
2022/07/01 01:24:44;;;;;;;1.70;0.73;;;19.30;62.10;;;;;;5050874;28;20043;-63
2022/07/01 01:27:10;;;;;;;0.70;0.50;;;19.30;61.60;;;;;;5049250;28;20531;-63
2022/07/01 01:29:37;;;;;;;0.90;0.40;;;19.30;61.50;;;;;;5048522;28;20037;-63
2022/07/01 01:32:03;;;;;;;0.95;0.47;;;19.30;61.50;;;;;;5048832;28;20041;-63
2022/07/01 01:34:29;;;;;;;0.65;0.52;;;19.30;61.50;;;;;;5010925;28;1098899;-63
2022/07/01 01:36:55;;;;;;;1.65;0.77;;;19.30;61.60;;;;;;5049627;28;20056;-63
2022/07/01 01:39:21;;;;;;;1.55;0.60;;;19.30;61.60;;;;;;5050300;28;20121;-63
2022/07/01 01:41:47;;;;;;;1.45;0.60;;;19.20;61.60;;;;;;5049504;28;20045;-63
2022/07/01 01:44:13;;;;;;;1.15;0.60;;;19.30;61.60;;;;;;5049301;28;20069;-64
2022/07/01 01:46:39;;;;;;;0.68;0.50;;;19.20;61.50;;;;;;5049677;28;20041;-63
2022/07/01 01:49:05;;;;;;;1.20;0.50;;;19.20;61.50;;;;;;5050954;28;20033;-63
2022/07/01 01:51:32;;;;;;;1.52;0.85;;;19.20;61.50;;;;;;5050222;28;20045;-63
2022/07/01 01:53:58;;;;;;;1.13;0.52;;;19.20;61.70;;;;;;5051112;28;20461;-63
2022/07/01 01:56:24;;;;;;;3.03;0.90;;;19.20;61.70;;;;;;5050943;28;20077;-63
2022/07/01 01:58:50;;;;;;;1.80;0.82;;;19.20;61.80;;;;;;5047547;28;20507;-63
2022/07/01 02:01:17;;;;;;;1.88;0.95;;;19.10;61.80;;;;;;5048148;28;20095;-63
2022/07/01 02:03:44;;;;;;;1.40;0.90;;;19.10;61.80;;;;;;5049526;28;20053;-63
2022/07/01 02:06:11;;;;;;;1.75;1.08;;;19.10;61.80;;;;;;5032877;28;20037;-62
2022/07/01 02:08:41;;;;;;;2.15;1.00;;;19.10;61.80;;;;;;5047157;28;20039;-63
2022/07/01 02:11:07;;;;;;;2.78;1.13;;;19.10;61.80;;;;;;5048772;28;20033;-62
2022/07/01 02:13:34;;;;;;;1.42;0.98;;;19.10;61.90;;;;;;5050601;28;20037;-63
2022/07/01 02:15:59;;;;;;;3.45;1.00;;;19.10;61.80;;;;;;5049107;28;20112;-62
2022/07/01 02:18:25;;;;;;;2.28;1.20;;;19.10;61.90;;;;;;5050713;28;20120;-62
2022/07/01 02:20:51;;;;;;;3.22;1.15;;;19.10;61.90;;;;;;5046113;28;20077;-62
2022/07/01 02:23:17;;;;;;;2.33;1.40;;;19.10;61.90;;;;;;5052267;28;20142;-63
2022/07/01 02:25:43;;;;;;;1.85;1.20;;;19.10;61.80;;;;;;5053333;28;20045;-63
2022/07/01 02:28:09;;;;;;;2.92;1.90;;;19.10;61.90;;;;;;5053163;28;20037;-63
2022/07/01 02:30:36;;;;;;;3.97;1.58;;;19.10;62.20;;;;;;5053079;28;20477;-63
2022/07/01 02:33:03;;;;;;;2.05;1.15;;;19.10;62.10;;;;;;5051169;28;20544;-63
2022/07/01 02:35:29;;;;;;;2.70;1.23;;;19.10;62.50;;;;;;5053611;28;20508;-62
2022/07/01 02:37:55;;;;;;;2.42;1.25;;;19.00;62.00;;;;;;5049921;28;20052;-63
2022/07/01 02:40:21;;;;;;;2.42;1.40;;;19.00;62.10;;;;;;5052780;28;20167;-63
2022/07/01 02:42:47;;;;;;;1.85;1.15;;;19.00;62.10;;;;;;5052958;28;20400;-63
2022/07/01 02:45:12;;;;;;;1.90;1.20;;;19.00;62.00;;;;;;5053652;28;20037;-63
2022/07/01 02:47:40;;;;;;;5.03;2.63;;;19.00;62.00;;;;;;5050450;28;20039;-63
2022/07/01 02:50:08;;;;;;;4.40;3.03;;;19.00;62.30;;;;;;5052328;28;20488;-62
2022/07/01 02:52:36;;;;;;;3.40;2.17;;;18.90;62.30;;;;;;5052870;28;20049;-62
2022/07/01 02:55:03;;;;;;;4.32;2.40;;;18.90;62.30;;;;;;5052555;28;20037;-62
2022/07/01 02:57:29;;;;;;;4.47;2.72;;;18.90;62.30;;;;;;5052889;28;20083;-62
2022/07/01 02:59:54;;;;;;;3.67;2.80;;;18.90;62.20;;;;;;5049930;28;20127;-62
2022/07/01 03:02:21;;;;;;;5.07;2.80;;;18.90;62.30;;;;;;5052731;28;20072;-62
2022/07/01 03:04:48;;;;;;;5.32;4.00;;;18.90;62.30;;;;;;5053291;28;20068;-62
2022/07/01 03:07:14;;;;;;;4.05;3.30;;;18.80;62.40;;;;;;5052438;28;20041;-62
2022/07/01 03:09:40;;;;;;;3.38;2.88;;;18.80;62.40;;;;;;5051303;28;20056;-62
2022/07/01 03:12:27;;;;;;;3.15;2.60;;;18.80;62.40;;;;;;5052393;28;20424;-62
2022/07/01 03:14:59;;;;;;;5.20;3.50;;;18.80;62.40;;;;;;5050622;28;20103;-62
2022/07/01 03:17:27;;;;;;;4.30;2.92;;;18.70;62.50;;;;;;5051900;28;20122;-62
2022/07/01 03:19:54;;;;;;;5.32;4.45;;;18.70;62.50;;;;;;5051652;28;20040;-62
2022/07/01 03:22:26;;;;;;;6.05;4.97;;;18.70;62.60;;;;;;5052376;28;20076;-62
2022/07/01 03:24:53;;;;;;;6.20;5.13;;;18.70;62.60;;;;;;5050119;28;20033;-62
2022/07/01 03:27:20;;;;;;;4.80;4.30;;;18.70;62.70;;;;;;5051941;28;20033;-62
2022/07/01 03:29:46;;;;;;;8.70;6.43;;;18.70;62.70;;;;;;5049063;28;20370;-63
2022/07/01 03:32:12;;;;;;;7.65;6.65;;;18.70;62.70;;;;;;5051862;28;20051;-62
2022/07/01 03:34:43;;;;;;;9.65;7.70;;;18.70;62.80;;;;;;5050384;28;20582;-62
2022/07/01 03:37:11;;;;;;;11.75;10.20;;;18.70;62.90;;;;;;5050726;28;20120;-62
2022/07/01 03:39:38;;;;;;;6.95;5.78;;;18.70;62.90;;;;;;5049763;28;20055;-62
2022/07/01 03:42:05;;;;;;;8.43;7.13;;;18.60;62.80;;;;;;5051426;28;20106;-62
2022/07/01 03:44:31;;;;;;;10.38;9.30;;;18.60;62.80;;;;;;5051371;28;20036;-62
2022/07/01 03:46:57;;;;;;;11.18;9.10;;;18.60;62.70;;;;;;5051590;28;20086;-62
2022/07/01 03:49:23;;;;;;;8.93;7.93;;;18.60;62.80;;;;;;5051870;28;20044;-62
2022/07/01 03:51:49;;;;;;;11.52;10.30;;;18.60;62.80;;;;;;5052723;28;20048;-62
2022/07/01 03:54:30;;;;;;;10.38;9.27;;;18.50;62.80;;;;;;5051094;28;20045;-62
2022/07/01 03:57:00;;;;;;;10.63;9.55;;;18.50;62.90;;;;;;5049330;28;20052;-62
2022/07/01 03:59:27;;;;;;;12.43;11.13;;;18.50;62.90;;;;;;5031988;28;20044;-62
2022/07/01 04:01:57;;;;;;;12.95;11.65;;;18.50;62.90;;;;;;5051478;28;20045;-62
2022/07/01 04:04:24;;;;;;;10.02;9.02;;;18.50;63.00;;;;;;5052915;28;20124;-62
2022/07/01 04:06:50;;;;;;;12.68;11.13;;;18.50;63.00;;;;;;5051534;28;20377;-62
2022/07/01 04:09:17;;;;;;;16.58;14.48;;;18.50;63.00;;;;;;5049965;28;20114;-62
2022/07/01 04:11:44;;;;;;;13.77;12.38;;;18.50;63.20;;;;;;5050831;28;20040;-62
2022/07/01 04:14:10;;;;;;;10.88;9.77;;;18.50;63.70;;;;;;5051056;28;20060;-62
2022/07/01 04:16:37;;;;;;;13.05;11.73;;;18.40;63.10;;;;;;5050130;28;20037;-62
2022/07/01 04:19:03;;;;;;;11.68;10.20;;;18.40;63.10;;;;;;5051204;28;20033;-62
2022/07/01 04:24:13;;;;;;;;;;;18.40;63.30;;;;;;5052045;28;20098;-62
2022/07/01 04:26:40;;;;;;;18.52;16.52;;;18.30;62.80;;;;;;5050934;28;19917;-62
2022/07/01 04:29:07;;;;;;;14.35;12.80;;;18.30;63.50;;;;;;5049589;28;20029;-62
2022/07/01 04:31:33;;;;;;;15.07;13.50;;;18.20;63.50;;;;;;5050631;28;20053;-62
2022/07/01 04:33:59;;;;;;;19.05;16.85;;;18.20;63.50;;;;;;5058828;28;20481;-62
2022/07/01 04:36:26;;;;;;;15.73;13.10;;;18.20;63.80;;;;;;5062304;28;20059;-62
2022/07/01 04:38:51;;;;;;;13.57;12.05;;;18.20;63.80;;;;;;5049940;28;20116;-62
2022/07/01 04:44:01;;;;;;;18.08;16.13;;;18.20;63.90;;;;;;5050699;28;21704;-62
2022/07/01 04:46:27;;;;;;;14.13;12.63;;;18.10;63.90;;;;;;5049002;28;20123;-62
2022/07/01 04:48:54;;;;;;;16.42;14.75;;;18.10;64.00;;;;;;5048262;28;20041;-62
2022/07/01 04:51:19;;;;;;;15.05;13.55;;;18.10;64.00;;;;;;5049071;28;20073;-62
2022/07/01 04:53:45;;;;;;;15.43;13.82;;;18.10;64.00;;;;;;5051538;28;20173;-62
2022/07/01 04:56:11;;;;;;;19.42;15.82;;;18.10;64.00;;;;;;5046564;28;20036;-62
2022/07/01 04:58:37;;;;;;;20.15;18.13;;;18.10;64.10;;;;;;5050668;28;20041;-62
2022/07/01 05:01:02;;;;;;;16.88;15.18;;;18.10;64.20;;;;;;5049891;28;20041;-62
2022/07/01 05:03:28;;;;;;;16.48;14.80;;;18.10;64.20;;;;;;5050134;28;20048;-62
2022/07/01 05:05:54;;;;;;;18.33;15.73;;;18.20;64.30;;;;;;5047887;28;20040;-62
2022/07/01 05:08:20;;;;;;;18.88;16.45;;;18.20;64.40;;;;;;5050265;28;20358;-62
2022/07/01 05:10:45;;;;;;;21.23;19.05;;;18.10;64.40;;;;;;5049066;28;20065;-62
2022/07/01 05:13:11;;;;;;;23.25;20.90;;;18.10;64.60;;;;;;5050283;28;20387;-62
2022/07/01 05:15:37;;;;;;;22.45;20.05;;;18.10;64.80;;;;;;5050255;28;20484;-62
2022/07/01 05:23:31;;;;;;;20.08;18.05;;;18.10;64.90;;;;;;5051170;28;20094;-62
2022/07/01 05:25:56;;;;;;;15.05;13.50;;;18.00;64.80;;;;;;5048158;28;20033;-61
2022/07/01 05:28:22;;;;;;;22.08;19.80;;;18.00;64.70;;;;;;5050917;28;20041;-62
2022/07/01 05:30:47;;;;;;;19.13;17.13;;;18.00;64.90;;;;;;5049654;28;20047;-62
2022/07/01 05:33:13;;;;;;;17.65;15.63;;;18.00;64.80;;;;;;5049662;28;20124;-62
2022/07/01 05:35:39;;;;;;;18.02;16.23;;;18.00;64.70;;;;;;5045792;28;20088;-62
2022/07/01 05:38:04;;;;;;;14.50;13.00;;;18.00;64.70;;;;;;5050079;28;20506;-62
2022/07/01 05:40:30;;;;;;;18.30;16.50;;;18.00;64.60;;;;;;5048896;28;20048;-62
2022/07/01 05:42:56;;;;;;;19.33;17.20;;;18.00;64.60;;;;;;5048912;28;20539;-62
2022/07/01 05:45:21;;;;;;;17.67;15.82;;;18.00;64.60;;;;;;5047778;28;20381;-62
2022/07/01 05:47:47;;;;;;;16.33;14.85;;;18.00;64.60;;;;;;5049041;28;20394;-62
2022/07/01 05:50:13;;;;;;;19.27;17.25;;;18.00;64.70;;;;;;5050082;28;20041;-62
2022/07/01 05:52:38;;;;;;;14.27;12.82;;;18.00;64.80;;;;;;5050503;28;20115;-62
2022/07/01 05:55:04;;;;;;;18.48;16.67;;;18.00;64.80;;;;;;5047641;28;20362;-62
2022/07/01 05:57:30;;;;;;;17.02;15.38;;;18.00;64.90;;;;;;5035194;28;20106;-62
2022/07/01 05:59:55;;;;;;;18.50;16.63;;;18.00;64.90;;;;;;5053969;28;20461;-62
2022/07/01 06:02:21;;;;;;;18.17;16.48;;;18.00;65.10;;;;;;5052886;28;20063;-62
2022/07/01 06:04:47;;;;;;;18.67;16.88;;;18.00;65.20;;;;;;5053705;28;20045;-62
2022/07/01 06:07:12;;;;;;;17.63;15.85;;;17.90;65.00;;;;;;5054182;28;20036;-62
2022/07/01 06:09:38;;;;;;;14.68;13.18;;;17.90;65.00;;;;;;5053200;28;20080;-62
2022/07/01 06:12:05;;;;;;;19.88;17.88;;;17.90;65.10;;;;;;5053899;28;20049;-62
2022/07/01 06:14:31;;;;;;;20.23;18.30;;;17.90;65.10;;;;;;5053118;28;20049;-62
2022/07/01 06:16:57;;;;;;;18.05;16.33;;;17.90;65.20;;;;;;5050174;28;20037;-62
2022/07/01 06:19:23;;;;;;;17.75;16.15;;;17.90;65.20;;;;;;5061038;28;20444;-62
2022/07/01 06:21:49;;;;;;;15.35;13.85;;;17.90;65.10;;;;;;5053917;28;20141;-62
2022/07/01 06:24:14;;;;;;;16.85;15.20;;;17.90;65.20;;;;;;5051940;28;20119;-62
2022/07/01 06:26:40;;;;;;;20.15;18.08;;;17.90;65.20;;;;;;5054446;28;20041;-62
2022/07/01 06:29:06;;;;;;;14.43;13.02;;;17.90;65.20;;;;;;5053678;28;20090;-62
2022/07/01 06:31:36;;;;;;;22.52;20.30;;;17.90;65.20;;;;;;5053139;28;20037;-62
2022/07/01 06:34:01;;;;;;;20.65;18.63;;;17.90;65.30;;;;;;5060982;28;20037;-62
2022/07/01 06:36:27;;;;;;;24.17;20.27;;;17.90;65.30;;;;;;5065337;28;20040;-62
2022/07/01 06:38:53;;;;;;;19.85;17.77;;;17.90;65.40;;;;;;5045948;28;20618;-62
2022/07/01 06:41:28;;;;;;;21.00;18.90;;;17.90;65.50;;;;;;5062914;28;20130;-62
2022/07/01 06:44:00;;;;;;;16.98;15.38;;;17.90;65.70;;;;;;5064874;28;20086;-62
2022/07/01 06:46:27;;;;;;;21.10;18.90;;;17.90;65.80;;;;;;5067361;28;20089;-62
2022/07/01 06:48:53;;;;;;;16.83;15.10;;;17.80;65.90;;;;;;5064456;28;20380;-62
2022/07/01 06:51:19;;;;;;;20.00;17.98;;;17.80;65.80;;;;;;5065491;28;20395;-62
2022/07/01 06:53:46;;;;;;;20.85;18.65;;;17.80;65.90;;;;;;5063178;28;20040;-62
2022/07/01 06:56:13;;;;;;;23.20;20.70;;;17.80;66.10;;;;;;5066408;28;20106;-62
2022/07/01 06:58:39;;;;;;;22.60;20.30;;;17.80;66.30;;;;;;5065479;28;20488;-62
2022/07/01 07:01:05;;;;;;;22.55;20.25;;;17.80;66.50;;;;;;5062880;28;20035;-62
2022/07/01 07:03:33;;;;;;;22.42;19.95;;;17.80;66.60;;;;;;5064024;28;20045;-62
2022/07/01 07:06:02;;;;;;;21.77;19.52;;;17.70;66.70;;;;;;5049229;28;20048;-62
2022/07/01 07:08:29;;;;;;;21.13;19.02;;;17.70;66.70;;;;;;5061349;28;20058;-62
2022/07/01 07:10:55;;;;;;;22.90;19.20;;;17.60;66.90;;;;;;5064403;28;20068;-62
2022/07/01 07:13:21;;;;;;;18.15;16.25;;;17.60;67.10;;;;;;5063398;28;20068;-62
2022/07/01 07:15:46;;;;;;;18.40;16.52;;;17.60;67.40;;;;;;5064209;28;20044;-62
2022/07/01 07:18:12;;;;;;;22.08;19.85;;;17.60;67.30;;;;;;5063687;28;20107;-62
2022/07/01 07:20:38;;;;;;;19.30;17.30;;;17.70;67.50;;;;;;5063660;28;20131;-62
2022/07/01 07:23:04;;;;;;;19.20;17.33;;;17.70;67.60;;;;;;5064352;28;20115;-62
2022/07/01 07:25:30;;;;;;;19.23;17.38;;;17.70;67.70;;;;;;5051152;28;20032;-62
2022/07/01 07:27:56;;;;;;;15.60;13.98;;;17.70;67.80;;;;;;5065102;28;20033;-62
2022/07/01 07:30:23;;;;;;;15.65;14.05;;;17.80;67.90;;;;;;5064660;28;20037;-62
2022/07/01 07:32:49;;;;;;;17.95;16.15;;;17.80;67.80;;;;;;5069350;28;20488;-62
2022/07/01 07:35:15;;;;;;;19.95;17.80;;;17.90;67.90;;;;;;5069083;28;20103;-62
2022/07/01 07:37:42;;;;;;;16.38;13.88;;;18.00;68.10;;;;;;5068911;28;20073;-62
2022/07/01 07:40:14;;;;;;;14.25;12.73;;;18.00;67.70;;;;;;5065610;28;20081;-62
2022/07/01 07:42:40;;;;;;;15.35;11.93;;;18.10;67.30;;;;;;5065512;28;20083;-62
2022/07/01 07:45:07;;;;;;;15.68;13.20;;;18.20;67.20;;;;;;5053100;28;20048;-63
2022/07/01 07:47:34;;;;;;;14.77;13.23;;;18.30;67.30;;;;;;5049245;28;20029;-62
2022/07/01 07:50:00;;;;;;;16.50;14.27;;;18.40;67.80;;;;;;5050419;28;20048;-62
2022/07/01 07:52:26;;;;;;;16.77;14.60;;;18.50;67.60;;;;;;5052001;28;20033;-62
2022/07/01 07:54:52;;;;;;;15.93;12.35;;;18.70;67.00;;;;;;5051396;28;20190;-62
2022/07/01 07:57:17;;;;;;;12.25;10.35;;;18.80;66.80;;;;;;5053004;28;20493;-62
2022/07/01 07:59:43;;;;;;;14.82;13.32;;;18.90;66.40;;;;;;5050834;28;20119;-63
2022/07/01 08:02:08;;;;;;;14.95;11.43;;;19.10;66.30;;;;;;5050412;28;20094;-63
2022/07/01 08:04:34;;;;;;;12.60;10.70;;;19.30;65.90;;;;;;5049649;28;20029;-62
2022/07/01 08:07:00;;;;;;;13.30;11.43;;;19.50;65.60;;;;;;5049978;28;20033;-62
2022/07/01 08:09:26;;;;;;;12.23;11.02;;;19.60;64.50;;;;;;5050782;28;20037;-62
2022/07/01 08:11:52;;;;;;;12.90;11.48;;;19.80;63.90;;;;;;5050280;28;20399;-62
2022/07/01 08:14:17;;;;;;;12.55;11.07;;;19.90;63.60;;;;;;5048824;28;20036;-62
2022/07/01 08:16:43;;;;;;;14.18;12.77;;;20.00;63.30;;;;;;5050126;28;20135;-62
2022/07/01 08:19:09;;;;;;;12.85;11.52;;;20.10;62.90;;;;;;5050016;28;20045;-62
2022/07/01 08:21:35;;;;;;;14.00;12.57;;;20.10;62.40;;;;;;5050746;28;20037;-62
2022/07/01 08:24:00;;;;;;;12.80;11.50;;;20.20;61.90;;;;;;5049871;28;20471;-62
2022/07/01 08:26:26;;;;;;;11.15;9.90;;;20.30;61.40;;;;;;5050616;28;20037;-62
2022/07/01 08:28:52;;;;;;;16.08;13.15;;;20.30;61.20;;;;;;5048781;28;20061;-62
2022/07/01 08:31:17;;;;;;;14.15;12.65;;;20.40;61.10;;;;;;5050472;28;20587;-62
2022/07/01 08:33:43;;;;;;;12.45;11.25;;;20.50;61.20;;;;;;5050138;28;20051;-62
2022/07/01 08:36:09;;;;;;;13.88;11.88;;;20.50;61.00;;;;;;5049220;28;20107;-62
2022/07/01 08:38:36;;;;;;;11.35;10.23;;;20.60;60.70;;;;;;5046875;28;20049;-63
2022/07/01 08:41:04;;;;;;;12.45;9.85;;;20.70;60.70;;;;;;5038479;28;20446;-63
2022/07/01 08:43:30;;;;;;;14.00;10.98;;;20.70;60.10;;;;;;5050022;28;20033;-62
2022/07/01 08:45:58;;;;;;;16.13;11.20;;;20.80;60.20;;;;;;5049157;28;20041;-63
2022/07/01 08:48:24;;;;;;;10.32;9.18;;;20.90;60.50;;;;;;5048952;28;20133;-63
2022/07/01 08:50:50;;;;;;;11.25;9.98;;;20.90;60.20;;;;;;5049726;28;20119;-62
2022/07/01 08:53:16;;;;;;;8.20;7.35;;;21.00;60.60;;;;;;5049637;28;20099;-63
2022/07/01 08:58:28;;;;;;;8.85;7.10;;;21.10;58.90;;;;;;5038487;28;20029;-63
2022/07/01 09:01:31;;;;;;;7.18;6.45;;;21.20;58.50;;;;;;5049821;28;20409;-62
2022/07/01 09:04:13;;;;;;;8.40;5.45;;;21.20;58.20;;;;;;5032404;28;20130;-63
2022/07/01 09:06:40;;;;;;;8.05;5.85;;;21.30;58.10;;;;;;5048431;28;20085;-63
2022/07/01 09:09:20;;;;;;;10.10;6.40;;;21.40;58.00;;;;;;5048944;28;20049;-63
2022/07/01 09:11:54;;;;;;;7.72;5.80;;;21.50;57.30;;;;;;5048567;28;20052;-63
2022/07/01 09:14:29;;;;;;;10.25;6.03;;;21.60;58.10;;;;;;5048555;28;20049;-63
2022/07/01 09:16:58;;;;;;;8.65;5.72;;;21.70;57.10;;;;;;5058359;28;20114;-63
2022/07/01 09:19:25;;;;;;;7.20;4.95;;;21.80;56.70;;;;;;5057620;28;20056;-63
2022/07/01 09:21:56;;;;;;;6.80;4.60;;;21.90;56.30;;;;;;5058116;28;20041;-63
2022/07/01 09:24:42;;;;;;;6.15;4.82;;;22.00;56.70;;;;;;5061420;28;20040;-62
2022/07/01 09:27:12;;;;;;;8.20;4.00;;;22.20;56.50;;;;;;5058331;28;20546;-63
2022/07/01 09:29:46;;;;;;;9.18;4.50;;;22.30;56.30;;;;;;5059278;28;20051;-63
2022/07/01 09:32:13;;;;;;;8.30;4.65;;;22.40;55.50;;;;;;5061329;28;20032;-63
2022/07/01 09:34:46;;;;;;;5.47;3.75;;;22.60;55.40;;;;;;5063911;28;20041;-63
2022/07/01 09:37:14;;;;;;;10.35;4.03;;;22.70;55.00;;;;;;5058802;28;20056;-63
2022/07/01 09:39:44;;;;;;;7.50;4.45;;;22.90;54.60;;;;;;5061005;28;20039;-63
2022/07/01 09:42:10;;;;;;;9.13;4.22;;;23.10;53.90;;;;;;5058792;28;20109;-63
2022/07/01 09:44:57;;;;;;;6.82;3.55;;;23.20;53.50;;;;;;5041599;28;20064;-63
2022/07/01 09:47:27;;;;;;;7.43;3.53;;;23.40;53.00;;;;;;5061217;28;20079;-63
2022/07/01 09:49:54;;;;;;;7.45;4.25;;;23.60;52.90;;;;;;5061734;28;20790;-63
2022/07/01 09:52:20;;;;;;;6.75;4.40;;;23.70;52.30;;;;;;5064604;28;20043;-63
2022/07/01 09:54:50;;;;;;;7.75;3.95;;;23.90;51.50;;;;;;5045383;28;20102;-63
2022/07/01 09:57:17;;;;;;;5.38;3.67;;;24.00;52.70;;;;;;5062748;28;20496;-63
2022/07/01 09:59:43;;;;;;;5.38;2.58;;;24.20;52.00;;;;;;5046864;28;20036;-64
2022/07/01 10:02:09;;;;;;;6.40;2.83;;;24.30;50.70;;;;;;5064389;28;20484;-64
2022/07/01 10:05:05;;;;;;;6.07;3.10;;;24.40;49.90;;;;;;5062998;28;20074;-63
2022/07/01 10:07:52;;;;;;;7.60;3.30;;;24.40;49.60;;;;;;5046818;28;20048;-63
2022/07/01 10:10:36;;;;;;;6.80;2.95;;;24.40;50.00;;;;;;5061140;28;20434;-63
2022/07/01 10:13:04;;;;;;;5.65;2.75;;;24.40;50.00;;;;;;5059987;28;20055;-63
2022/07/01 10:15:30;;;;;;;6.22;2.63;;;24.40;49.40;;;;;;5062190;28;20048;-65
2022/07/01 10:17:56;;;;;;;4.95;2.42;;;24.60;49.80;;;;;;5066228;28;20086;-65
2022/07/01 10:20:27;;;;;;;5.55;2.97;;;24.70;49.40;;;;;;5066302;28;20428;-64
2022/07/01 10:23:06;;;;;;;4.40;2.30;;;24.80;48.60;;;;;;5065209;28;20479;-65
2022/07/01 10:25:39;;;;;;;3.13;1.77;;;24.80;48.00;;;;;;5065278;28;20051;-65
2022/07/01 10:28:46;;;;;;;3.78;1.85;;;24.90;49.40;;;;;;5066326;28;20036;-64
2022/07/01 10:31:17;;;;;;;6.50;2.45;;;25.10;49.30;;;;;;5064202;28;20079;-65
2022/07/01 10:33:49;;;;;;;4.20;1.83;;;25.20;49.40;;;;;;5047091;28;20476;-65
2022/07/01 10:36:28;;;;;;;4.93;1.90;;;25.30;48.00;;;;;;5064283;28;20147;-64
2022/07/01 10:39:23;;;;;;;4.43;2.13;;;25.40;48.10;;;;;;5062064;28;20052;-64
2022/07/01 10:41:52;;;;;;;5.95;1.50;;;25.60;46.80;;;;;;5061518;28;20045;-64
2022/07/01 10:44:18;;;;;;;3.55;1.60;;;25.70;45.60;;;;;;5063892;28;20032;-65
2022/07/01 10:46:57;;;;;;;4.68;1.33;;;25.70;45.10;;;;;;5060450;28;20037;-65
2022/07/01 10:49:46;;;;;;;5.10;1.45;;;25.70;45.00;;;;;;5067101;28;20141;-65
2022/07/01 10:52:15;;;;;;;4.32;1.40;;;25.80;45.40;;;;;;5066772;28;20070;-65
2022/07/01 10:54:43;;;;;;;3.53;1.08;;;25.80;46.50;;;;;;5069975;28;20109;-65
2022/07/01 10:57:22;;;;;;;4.05;1.50;;;25.90;46.70;;;;;;5062035;28;20041;-63
2022/07/01 10:59:58;;;;;;;5.25;1.60;;;26.00;46.50;;;;;;5068913;28;20119;-63
2022/07/01 11:02:30;;;;;;;4.00;1.60;;;26.10;46.50;;;;;;5064376;28;20105;-63
2022/07/01 11:05:06;;;;;;;4.13;2.05;;;26.10;45.90;;;;;;5066752;28;20032;-63
2022/07/01 11:07:34;;;;;;;4.60;1.90;;;26.10;45.20;;;;;;5064807;28;20480;-63
2022/07/01 11:10:02;;;;;;;2.65;1.45;;;26.10;44.70;;;;;;5064474;28;20036;-63
2022/07/01 11:12:29;;;;;;;5.85;2.20;;;26.10;45.40;;;;;;5067304;28;20072;-63
2022/07/01 11:14:58;;;;;;;3.95;1.90;;;26.10;45.70;;;;;;5065596;28;20099;-63
2022/07/01 11:17:25;;;;;;;3.85;1.60;;;26.00;45.70;;;;;;5059481;28;20052;-63
2022/07/01 11:19:54;;;;;;;4.13;1.15;;;25.90;45.70;;;;;;5061984;28;20165;-63
2022/07/01 11:22:21;;;;;;;4.43;1.30;;;25.90;45.80;;;;;;5059849;28;20055;-63
2022/07/01 11:24:56;;;;;;;4.07;1.17;;;25.90;44.90;;;;;;5064086;28;20123;-63
2022/07/01 11:27:22;;;;;;;4.35;1.40;;;25.90;44.30;;;;;;5058739;28;20411;-63
2022/07/01 11:29:55;;;;;;;5.13;1.00;;;25.80;44.50;;;;;;5062570;28;20368;-64
2022/07/01 11:32:26;;;;;;;2.40;0.80;;;25.80;44.20;;;;;;5058840;28;20068;-67
2022/07/01 11:34:52;;;;;;;2.67;0.50;;;25.70;43.80;;;;;;5062249;28;20056;-66
2022/07/01 11:40:08;;;;;;;3.08;0.70;;;25.50;43.10;;;;;;5063087;28;20113;-65
2022/07/01 11:42:34;;;;;;;3.17;0.70;;;25.40;43.50;;;;;;5061195;28;20110;-65
2022/07/01 11:45:01;;;;;;;3.58;1.00;;;25.20;43.90;;;;;;5062406;28;20487;-65
2022/07/01 11:47:27;;;;;;;2.20;0.50;;;25.10;43.60;;;;;;5042493;28;20044;-65
2022/07/01 11:49:53;;;;;;;2.08;0.68;;;25.00;42.50;;;;;;5062789;28;21473;-65
2022/07/01 11:52:21;;;;;;;2.33;0.55;;;24.80;42.00;;;;;;5062555;28;20072;-65
2022/07/01 11:54:49;;;;;;;2.38;0.65;;;24.70;42.80;;;;;;5062325;28;20460;-65
2022/07/01 11:57:19;;;;;;;2.55;0.70;;;24.50;43.00;;;;;;5061630;28;20052;-65
2022/07/01 11:59:47;;;;;;;3.35;0.80;;;24.40;43.20;;;;;;5063833;28;20064;-65
2022/07/01 12:02:15;;;;;;;2.38;0.90;;;24.30;43.70;;;;;;5059619;28;20102;-65
2022/07/01 12:04:42;;;;;;;3.33;0.85;;;24.30;44.00;;;;;;5060535;28;20094;-65
2022/07/01 12:07:09;;;;;;;5.28;1.38;;;24.20;44.60;;;;;;5061631;28;21529;-65
2022/07/01 12:09:36;;;;;;;4.10;0.90;;;24.20;45.20;;;;;;5063649;28;20046;-65
2022/07/01 12:12:02;;;;;;;2.90;0.75;;;24.10;45.10;;;;;;5046219;28;20360;-65
2022/07/01 12:14:30;;;;;;;3.42;0.90;;;24.10;44.80;;;;;;5061619;28;20843;-65
2022/07/01 12:17:01;;;;;;;4.28;0.93;;;24.00;44.00;;;;;;5061094;28;20399;-65
2022/07/01 12:19:39;;;;;;;1.58;0.45;;;23.90;43.60;;;;;;5060330;28;20041;-65
2022/07/01 12:22:16;;;;;;;2.63;0.68;;;23.80;43.40;;;;;;5062410;28;20041;-65
2022/07/01 12:24:42;;;;;;;2.20;0.50;;;23.60;43.10;;;;;;5045843;28;20040;-65
2022/07/01 12:27:09;;;;;;;2.83;0.68;;;23.40;43.20;;;;;;5046090;28;20102;-65
2022/07/01 12:29:49;;;;;;;4.57;0.63;;;23.30;43.40;;;;;;5061613;28;20044;-65
2022/07/01 12:32:23;;;;;;;2.95;0.77;;;23.10;43.80;;;;;;5063381;28;20527;-65
2022/07/01 12:34:50;;;;;;;4.45;0.60;;;22.90;44.40;;;;;;5058398;28;20060;-65
2022/07/01 12:37:24;;;;;;;3.35;0.60;;;22.90;44.80;;;;;;5060009;28;20057;-65
2022/07/01 12:39:52;;;;;;;3.10;0.82;;;22.80;45.40;;;;;;5066682;28;20108;-65
2022/07/01 12:42:38;;;;;;;3.72;1.00;;;22.60;45.70;;;;;;5063074;28;20036;-65
2022/07/01 12:45:07;;;;;;;3.95;1.23;;;22.70;46.20;;;;;;5059053;28;20480;-65
2022/07/01 12:47:44;;;;;;;4.15;0.88;;;22.70;46.40;;;;;;5063419;28;20036;-65
2022/07/01 12:50:10;;;;;;;3.60;0.90;;;22.70;46.50;;;;;;5058071;28;20471;-65
2022/07/01 12:52:37;;;;;;;4.13;0.95;;;22.70;47.00;;;;;;5044838;28;20041;-65
2022/07/01 12:55:17;;;;;;;5.78;0.80;;;22.70;46.30;;;;;;5064604;28;20045;-65
2022/07/01 12:57:43;;;;;;;2.05;0.75;;;22.70;46.50;;;;;;5065262;28;20059;-65
2022/07/01 13:00:09;;;;;;;2.90;1.02;;;22.60;46.60;;;;;;5063846;28;20133;-65
2022/07/01 13:02:35;;;;;;;2.40;0.70;;;22.60;46.50;;;;;;5059580;28;20376;-65